Mill Creek, West Virginia
Current Conditions -  °F | °C
As of 12:24 PM on Wednesday 26 Nov 2014 (Local Time) from KEKN Reporting Station
Moderate Snow Moderate Snow  
Wind Chill: 33°   Ceiling: 800
Heat Index: 33°   Visibility: 0.5mi
Dew Point: 33°   Wind: 0mph
Humidity: 100%   Direction: NA
Pressure: 29.95"   Gusts: NA
Location:  38.73°N, 79.97°W
Report Text: KEKN 261724Z AUTO 00000KT 1/2SM SN FG SCT004 OVC008 01/01 A2995 RMK AO2 P0002 T00060006 TSNO
Loading
Personal Weather Stations






























Interactive Weather Map New forecast layout! Learn more

10-Day Weather Forecast

Advertisements
Track Severe Weather on mobile